createdAt,value
2018-06-13T00:00:35.990Z,0.00
2018-06-13T00:03:35.924Z,0.00
2018-06-13T00:04:35.897Z,0.00
2018-06-13T00:05:36.197Z,0.00
2018-06-13T00:06:35.875Z,0.00
2018-06-13T00:07:35.960Z,0.00
2018-06-13T00:08:35.898Z,0.00
2018-06-13T00:09:36.280Z,0.00
2018-06-13T00:10:35.879Z,0.00
2018-06-13T00:11:36.215Z,0.00
2018-06-13T00:12:36.192Z,0.00
2018-06-13T00:13:35.791Z,0.00
2018-06-13T00:14:35.819Z,0.00
2018-06-13T00:16:35.730Z,0.00
2018-06-13T00:17:35.724Z,0.00
2018-06-13T00:18:36.003Z,0.00
2018-06-13T00:19:35.694Z,0.00
2018-06-13T00:20:35.724Z,0.00
2018-06-13T00:21:35.649Z,0.00
2018-06-13T00:22:35.652Z,0.00
2018-06-13T00:23:35.740Z,0.00
2018-06-13T00:24:35.611Z,0.00
2018-06-13T00:25:35.996Z,0.00
2018-06-13T00:26:35.641Z,0.00
2018-06-13T00:27:35.576Z,0.00
2018-06-13T00:28:35.569Z,0.00
2018-06-13T00:29:35.552Z,0.00
2018-06-13T00:30:35.520Z,0.00
2018-06-13T00:31:35.608Z,0.00
2018-06-13T00:32:35.891Z,0.00
2018-06-13T00:33:35.478Z,0.00
2018-06-13T00:34:35.457Z,0.00
2018-06-13T00:35:35.468Z,0.00
2018-06-13T00:36:35.432Z,0.00
2018-06-13T00:37:35.478Z,0.00
2018-06-13T00:38:35.455Z,0.00
2018-06-13T00:39:35.689Z,0.00
2018-06-13T00:40:35.375Z,0.00
2018-06-13T00:41:35.390Z,0.00
2018-06-13T00:42:35.361Z,0.00
2018-06-13T00:43:35.320Z,0.00
2018-06-13T00:44:35.358Z,0.00
2018-06-13T00:45:35.479Z,0.00
2018-06-13T00:46:35.571Z,0.00
2018-06-13T00:47:35.269Z,0.00
2018-06-13T00:48:35.258Z,0.00
2018-06-13T00:49:35.231Z,0.00
2018-06-13T00:50:35.423Z,0.00
2018-06-13T00:51:35.210Z,0.00
2018-06-13T00:52:35.192Z,0.00
2018-06-13T00:53:35.470Z,0.00
2018-06-13T00:54:35.161Z,0.00
2018-06-13T00:55:35.141Z,0.00
2018-06-13T00:56:35.183Z,0.00
2018-06-13T00:57:35.134Z,0.00
2018-06-13T00:58:35.095Z,0.00
2018-06-13T00:59:35.082Z,0.00
2018-06-13T01:00:35.369Z,0.00
2018-06-13T01:01:35.545Z,0.00
2018-06-13T01:02:35.073Z,0.00
2018-06-13T01:03:35.201Z,0.00
2018-06-13T01:04:34.998Z,0.00
2018-06-13T01:05:34.983Z,0.00
2018-06-13T01:06:35.276Z,0.00
2018-06-13T01:07:34.955Z,0.00
2018-06-13T01:08:34.985Z,0.00
2018-06-13T01:09:34.916Z,0.00
2018-06-13T01:10:34.906Z,0.00
2018-06-13T01:11:34.892Z,0.00
2018-06-13T01:12:35.175Z,0.00
2018-06-13T01:13:34.855Z,0.00
2018-06-13T01:14:35.282Z,0.00
2018-06-13T01:15:34.852Z,0.00
2018-06-13T01:16:34.824Z,0.00
2018-06-13T01:18:35.098Z,0.00
2018-06-13T01:19:34.785Z,0.00
2018-06-13T01:20:34.814Z,0.00
2018-06-13T01:22:34.733Z,0.00
2018-06-13T01:23:34.713Z,0.00
2018-06-13T01:24:34.999Z,0.00
2018-06-13T01:25:34.697Z,0.00
2018-06-13T01:26:34.720Z,0.00
2018-06-13T01:27:34.653Z,0.00
2018-06-13T01:29:34.672Z,0.00
2018-06-13T01:30:34.602Z,0.00
2018-06-13T01:31:34.946Z,0.00
2018-06-13T01:32:34.654Z,0.00
2018-06-13T01:33:34.567Z,0.00
2018-06-13T01:34:34.556Z,0.00
2018-06-13T01:35:34.539Z,0.00
2018-06-13T01:36:34.643Z,0.00
2018-06-13T01:37:34.792Z,0.00
2018-06-13T01:38:34.611Z,0.00
2018-06-13T01:39:34.575Z,0.00
2018-06-13T01:40:34.529Z,0.00
2018-06-13T01:41:34.438Z,0.00
2018-06-13T01:42:34.425Z,0.00
2018-06-13T01:43:34.713Z,0.00
2018-06-13T01:44:34.456Z,0.00
2018-06-13T01:45:34.380Z,0.00
2018-06-13T01:46:34.366Z,0.00
2018-06-13T01:47:34.395Z,0.00
2018-06-13T01:48:34.329Z,0.00
2018-06-13T01:49:34.317Z,0.00
2018-06-13T01:50:34.681Z,0.00
2018-06-13T01:51:34.284Z,0.00
2018-06-13T01:52:34.289Z,0.00
2018-06-13T01:53:34.295Z,0.00
2018-06-13T01:54:34.240Z,0.00
2018-06-13T01:55:34.320Z,0.00
2018-06-13T01:56:34.637Z,0.00
2018-06-13T01:57:34.588Z,0.00
2018-06-13T01:58:34.653Z,0.00
2018-06-13T01:59:34.233Z,0.00
2018-06-13T02:00:34.157Z,0.00
2018-06-13T02:01:34.131Z,0.00
2018-06-13T02:02:34.343Z,0.00
2018-06-13T02:03:34.099Z,0.00
2018-06-13T02:04:34.379Z,0.00
2018-06-13T02:05:34.124Z,0.00
2018-06-13T02:06:34.270Z,0.00
2018-06-13T02:07:34.038Z,0.00
2018-06-13T02:08:34.070Z,0.00
2018-06-13T02:09:34.061Z,4.00
2018-06-13T02:10:34.065Z,4.00
2018-06-13T02:11:34.275Z,4.00
2018-06-13T02:12:33.957Z,4.00
2018-06-13T02:13:33.943Z,0.00
2018-06-13T02:14:33.975Z,0.00
2018-06-13T02:15:33.911Z,4.00
2018-06-13T02:16:33.944Z,4.00
2018-06-13T02:17:33.880Z,4.00
2018-06-13T02:18:34.158Z,4.00
2018-06-13T02:19:33.839Z,4.00
2018-06-13T02:20:33.880Z,4.00
2018-06-13T02:21:33.830Z,4.00
2018-06-13T02:22:33.904Z,8.00
2018-06-13T02:23:33.797Z,8.00
2018-06-13T02:24:33.871Z,12.00
2018-06-13T02:25:34.054Z,8.00
2018-06-13T02:26:33.955Z,8.00
2018-06-13T02:27:33.724Z,12.00
2018-06-13T02:28:33.705Z,12.00
2018-06-13T02:29:33.689Z,16.00
2018-06-13T02:30:33.687Z,16.00
2018-06-13T02:31:33.668Z,20.00
2018-06-13T02:32:34.007Z,24.00
2018-06-13T02:33:33.625Z,24.00
2018-06-13T02:34:33.610Z,24.00
2018-06-13T02:35:33.595Z,32.00
2018-06-13T02:36:33.571Z,32.00
2018-06-13T02:37:33.648Z,32.00
2018-06-13T02:38:33.970Z,32.00
2018-06-13T02:40:33.592Z,40.00
2018-06-13T02:41:33.502Z,44.00
2018-06-13T02:42:33.485Z,44.00
2018-06-13T02:43:33.471Z,48.00
2018-06-13T02:44:33.795Z,60.00
2018-06-13T02:45:33.482Z,64.00
2018-06-13T02:46:33.433Z,72.00
2018-06-13T02:47:33.510Z,72.00
2018-06-13T02:48:33.410Z,84.00
2018-06-13T02:49:33.379Z,88.00
2018-06-13T02:50:33.707Z,96.00
2018-06-13T02:52:33.375Z,112.00
2018-06-13T02:53:33.327Z,124.00
2018-06-13T02:54:33.305Z,132.00
2018-06-13T02:55:33.269Z,136.00
2018-06-13T02:56:33.608Z,136.00
2018-06-13T02:57:33.244Z,152.00
2018-06-13T02:58:33.226Z,168.00
2018-06-13T02:59:33.213Z,188.00
2018-06-13T03:00:34.168Z,200.00
2018-06-13T03:01:33.192Z,224.00
2018-06-13T03:02:33.627Z,228.00
2018-06-13T03:03:33.149Z,256.00
2018-06-13T03:04:33.139Z,284.00
2018-06-13T03:05:33.111Z,292.00
2018-06-13T03:06:33.102Z,300.00
2018-06-13T03:07:33.150Z,312.00
2018-06-13T03:08:33.432Z,316.00
2018-06-13T03:09:33.041Z,324.00
2018-06-13T03:10:33.112Z,340.00
2018-06-13T03:11:33.033Z,344.00
2018-06-13T03:12:33.105Z,368.00
2018-06-13T03:13:32.978Z,384.00
2018-06-13T03:14:33.021Z,400.00
2018-06-13T03:15:33.256Z,420.00
2018-06-13T03:16:32.935Z,420.00
2018-06-13T03:17:32.916Z,420.00
2018-06-13T03:18:32.945Z,424.00
2018-06-13T03:19:32.979Z,428.00
2018-06-13T03:20:32.934Z,452.00
2018-06-13T03:21:32.851Z,428.00
2018-06-13T03:22:33.147Z,456.00
2018-06-13T03:23:32.839Z,424.00
2018-06-13T03:24:32.823Z,380.00
2018-06-13T03:26:32.833Z,492.00
2018-06-13T03:27:32.767Z,544.00
2018-06-13T03:28:32.756Z,540.00
2018-06-13T03:29:33.024Z,592.00
2018-06-13T03:30:32.719Z,704.00
2018-06-13T03:31:32.794Z,792.00
2018-06-13T03:32:32.736Z,808.00
2018-06-13T03:33:32.664Z,784.00
2018-06-13T03:34:32.658Z,764.00
2018-06-13T03:35:32.637Z,800.00
2018-06-13T03:36:32.916Z,808.00
2018-06-13T03:37:32.600Z,792.00
2018-06-13T03:38:32.638Z,820.00
2018-06-13T03:39:32.580Z,900.00
2018-06-13T03:40:32.548Z,940.00
2018-06-13T03:41:32.588Z,936.00
2018-06-13T03:42:32.576Z,1032.00
2018-06-13T03:43:32.818Z,1020.00
2018-06-13T03:44:32.540Z,1108.00
2018-06-13T03:45:32.529Z,1176.00
2018-06-13T03:46:32.469Z,1164.00
2018-06-13T03:47:32.443Z,1228.00
2018-06-13T03:48:32.434Z,1096.00
2018-06-13T03:49:32.417Z,1184.00
2018-06-13T03:50:32.741Z,1272.00
2018-06-13T03:51:32.379Z,1348.00
2018-06-13T03:52:32.372Z,1332.00
2018-06-13T03:53:32.394Z,1464.00
2018-06-13T03:54:32.344Z,1348.00
2018-06-13T03:55:32.313Z,1224.00
2018-06-13T03:56:32.444Z,1284.00
2018-06-13T03:57:32.585Z,1100.00
2018-06-13T03:58:32.385Z,1412.00
2018-06-13T04:00:32.241Z,1508.00
2018-06-13T04:01:32.219Z,1332.00
2018-06-13T04:02:32.254Z,1212.00
2018-06-13T04:03:32.486Z,1536.00
2018-06-13T04:04:32.169Z,1920.00
2018-06-13T04:05:32.385Z,1600.00
2018-06-13T04:06:32.136Z,1292.00
2018-06-13T04:07:32.125Z,1348.00
2018-06-13T04:08:32.154Z,1376.00
2018-06-13T04:09:32.489Z,1516.00
2018-06-13T04:10:32.088Z,1328.00
2018-06-13T04:11:32.061Z,1424.00
2018-06-13T04:12:32.047Z,1520.00
2018-06-13T04:13:32.025Z,1676.00
2018-06-13T04:14:32.058Z,1348.00
2018-06-13T04:15:32.299Z,1312.00
2018-06-13T04:16:31.983Z,1304.00
2018-06-13T04:17:32.746Z,1328.00
2018-06-13T04:18:32.090Z,1148.00
2018-06-13T04:19:32.291Z,1352.00
2018-06-13T04:20:31.980Z,1340.00
2018-06-13T04:21:32.226Z,1848.00
2018-06-13T04:22:31.947Z,1816.00
2018-06-13T04:23:31.906Z,1736.00
2018-06-13T04:24:31.872Z,1784.00
2018-06-13T04:25:31.844Z,2140.00
2018-06-13T04:26:31.872Z,1888.00
2018-06-13T04:27:32.102Z,2176.00
2018-06-13T04:28:31.799Z,2384.00
2018-06-13T04:29:31.773Z,2012.00
2018-06-13T04:30:31.755Z,1948.00
2018-06-13T04:31:32.091Z,1968.00
2018-06-13T04:32:31.904Z,1880.00
2018-06-13T04:33:32.005Z,2084.00
2018-06-13T04:34:31.733Z,2108.00
2018-06-13T04:35:31.680Z,2312.00
2018-06-13T04:36:31.652Z,2332.00
2018-06-13T04:37:31.640Z,2312.00
2018-06-13T04:38:31.671Z,2208.00
2018-06-13T04:39:31.912Z,2220.00
2018-06-13T04:40:31.597Z,2332.00
2018-06-13T04:41:31.571Z,2392.00
2018-06-13T04:42:31.663Z,2660.00
2018-06-13T04:43:31.604Z,2532.00
2018-06-13T04:44:31.579Z,2928.00
2018-06-13T04:45:31.525Z,3112.00
2018-06-13T04:46:31.589Z,3044.00
2018-06-13T04:47:31.473Z,3084.00
2018-06-13T04:48:31.460Z,3164.00
2018-06-13T04:49:31.463Z,3504.00
2018-06-13T04:51:31.776Z,3532.00
2018-06-13T04:52:31.395Z,3392.00
2018-06-13T04:53:31.566Z,3352.00
2018-06-13T04:54:31.360Z,2768.00
2018-06-13T04:55:32.492Z,2452.00
2018-06-13T04:56:31.714Z,2284.00
2018-06-13T04:57:31.383Z,2248.00
2018-06-13T04:58:31.623Z,1888.00
2018-06-13T04:59:31.313Z,1812.00
2018-06-13T05:00:31.265Z,1804.00
2018-06-13T05:01:31.655Z,2096.00
2018-06-13T05:02:31.238Z,2064.00
2018-06-13T05:03:31.283Z,1844.00
2018-06-13T05:04:31.211Z,2344.00
2018-06-13T05:05:31.535Z,2476.00
2018-06-13T05:06:31.172Z,2200.00
2018-06-13T05:07:31.159Z,2108.00
2018-06-13T05:08:31.142Z,2356.00
2018-06-13T05:09:31.170Z,2292.00
2018-06-13T05:10:31.099Z,2636.00
2018-06-13T05:11:31.189Z,2264.00
2018-06-13T05:12:31.375Z,2372.00
2018-06-13T05:14:31.423Z,2604.00
2018-06-13T05:16:31.447Z,2460.00
2018-06-13T05:17:30.991Z,2772.00
2018-06-13T05:18:30.980Z,2664.00
2018-06-13T05:19:31.353Z,2568.00
2018-06-13T05:20:30.943Z,2512.00
2018-06-13T05:21:30.976Z,2136.00
2018-06-13T05:22:30.970Z,2736.00
2018-06-13T05:23:31.146Z,2812.00
2018-06-13T05:24:31.071Z,2788.00
2018-06-13T05:25:31.721Z,2584.00
2018-06-13T05:26:31.160Z,2448.00
2018-06-13T05:27:30.920Z,2432.00
2018-06-13T05:28:30.884Z,2300.00
2018-06-13T05:29:30.916Z,2448.00
2018-06-13T05:30:30.784Z,2636.00
2018-06-13T05:31:30.839Z,2944.00
2018-06-13T05:32:31.077Z,2976.00
2018-06-13T05:34:30.897Z,2944.00
2018-06-13T05:35:31.001Z,2724.00
2018-06-13T05:36:30.697Z,2632.00
2018-06-13T05:37:30.678Z,2740.00
2018-06-13T05:38:31.044Z,2804.00
2018-06-13T05:39:30.641Z,2584.00
2018-06-13T05:40:30.678Z,2716.00
2018-06-13T05:41:30.611Z,2692.00
2018-06-13T05:42:30.598Z,2784.00
2018-06-13T05:43:30.577Z,2896.00
2018-06-13T05:44:30.886Z,2852.00
2018-06-13T05:45:30.562Z,2940.00
2018-06-13T05:46:30.592Z,2848.00
2018-06-13T05:48:30.516Z,2932.00
2018-06-13T05:49:30.485Z,2716.00
2018-06-13T05:50:30.814Z,2624.00
2018-06-13T05:51:30.696Z,2984.00
2018-06-13T05:52:30.519Z,3036.00
2018-06-13T05:53:30.430Z,2880.00
2018-06-13T05:54:30.406Z,2864.00
2018-06-13T05:55:30.404Z,2816.00
2018-06-13T05:56:30.681Z,2740.00
2018-06-13T05:57:30.358Z,2568.00
2018-06-13T05:58:30.460Z,2620.00
2018-06-13T05:59:30.505Z,2804.00
2018-06-13T06:00:30.312Z,3064.00
2018-06-13T06:01:30.320Z,3200.00
2018-06-13T06:02:30.277Z,3316.00
2018-06-13T06:03:30.565Z,3628.00
2018-06-13T06:04:30.303Z,3664.00
2018-06-13T06:05:30.236Z,3552.00
2018-06-13T06:06:30.219Z,3044.00
2018-06-13T06:07:30.204Z,2636.00
2018-06-13T06:08:30.181Z,2684.00
2018-06-13T06:09:30.473Z,2828.00
2018-06-13T06:10:30.320Z,2236.00
2018-06-13T06:11:30.241Z,2712.00
2018-06-13T06:12:30.122Z,3328.00
2018-06-13T06:13:30.105Z,3960.00
2018-06-13T06:14:30.094Z,4260.00
2018-06-13T06:15:30.098Z,4024.00
2018-06-13T06:16:30.512Z,3976.00
2018-06-13T06:17:30.042Z,4212.00
2018-06-13T06:18:30.029Z,4280.00
2018-06-13T06:19:30.012Z,4200.00
2018-06-13T06:20:30.088Z,4368.00
2018-06-13T06:21:30.184Z,4364.00
2018-06-13T06:22:30.017Z,4112.00
2018-06-13T06:23:30.436Z,4360.00
2018-06-13T06:24:29.942Z,4888.00
2018-06-13T06:25:29.926Z,5072.00
2018-06-13T06:26:29.921Z,5352.00
2018-06-13T06:27:29.906Z,5592.00
2018-06-13T06:28:29.934Z,5796.00
2018-06-13T06:29:30.004Z,6216.00
2018-06-13T06:30:30.144Z,6452.00
2018-06-13T06:31:29.829Z,6500.00
2018-06-13T06:32:30.042Z,7164.00
2018-06-13T06:33:29.794Z,6800.00
2018-06-13T06:34:29.829Z,5956.00
2018-06-13T06:35:29.768Z,5416.00
2018-06-13T06:36:29.748Z,5216.00
2018-06-13T06:37:30.054Z,4632.00
2018-06-13T06:38:29.717Z,3756.00
2018-06-13T06:39:29.711Z,3564.00
2018-06-13T06:41:29.688Z,3784.00
2018-06-13T06:42:29.673Z,3976.00
2018-06-13T06:43:29.656Z,4136.00
2018-06-13T06:44:29.935Z,4288.00
2018-06-13T06:45:29.866Z,3844.00
2018-06-13T06:46:29.649Z,4252.00
2018-06-13T06:47:29.580Z,5384.00
2018-06-13T06:48:29.593Z,5764.00
2018-06-13T06:49:29.566Z,6896.00
2018-06-13T06:50:29.547Z,7108.00
2018-06-13T06:51:29.822Z,6896.00
2018-06-13T06:52:29.585Z,5560.00
2018-06-13T06:53:29.499Z,5520.00
2018-06-13T06:54:29.481Z,4968.00
2018-06-13T06:55:29.513Z,4796.00
2018-06-13T06:56:29.460Z,5952.00
2018-06-13T06:57:29.431Z,6236.00
2018-06-13T06:58:29.920Z,5704.00
2018-06-13T06:59:29.408Z,5348.00
2018-06-13T07:00:29.417Z,5596.00
2018-06-13T07:01:29.376Z,7608.00
2018-06-13T07:02:29.364Z,6244.00
2018-06-13T07:03:29.432Z,6472.00
2018-06-13T07:04:29.389Z,8304.00
2018-06-13T07:05:30.024Z,8096.00
2018-06-13T07:06:29.346Z,7676.00
2018-06-13T07:07:29.353Z,8260.00
2018-06-13T07:08:29.271Z,8680.00
2018-06-13T07:09:29.257Z,8508.00
2018-06-13T07:10:29.305Z,8312.00
2018-06-13T07:11:29.533Z,8512.00
2018-06-13T07:12:29.215Z,8388.00
2018-06-13T07:13:29.199Z,8248.00
2018-06-13T07:14:29.192Z,8060.00
2018-06-13T07:15:29.173Z,8228.00
2018-06-13T07:16:29.208Z,8832.00
2018-06-13T07:17:29.451Z,9164.00
2018-06-13T07:18:31.277Z,9500.00
2018-06-13T07:19:29.135Z,10120.00
2018-06-13T07:20:29.102Z,10420.00
2018-06-13T07:21:29.085Z,10056.00
2018-06-13T07:22:29.128Z,10468.00
2018-06-13T07:23:29.067Z,10796.00
2018-06-13T07:24:31.298Z,10176.00
2018-06-13T07:27:29.001Z,11156.00
2018-06-13T07:28:29.057Z,11360.00
2018-06-13T07:29:28.975Z,11368.00
2018-06-13T07:30:29.263Z,9544.00
2018-06-13T07:31:28.959Z,11644.00
2018-06-13T07:32:28.960Z,11612.00
2018-06-13T07:33:28.921Z,11948.00
2018-06-13T07:34:28.974Z,12184.00
2018-06-13T07:35:28.913Z,12452.00
2018-06-13T07:36:29.178Z,12628.00
2018-06-13T07:37:28.868Z,12808.00
2018-06-13T07:38:28.857Z,12664.00
2018-06-13T07:39:28.843Z,12332.00
2018-06-13T07:40:28.878Z,11080.00
2018-06-13T07:41:28.839Z,11820.00
2018-06-13T07:42:28.800Z,12432.00
2018-06-13T07:43:29.094Z,11768.00
2018-06-13T07:44:28.777Z,13052.00
2018-06-13T07:45:28.765Z,13032.00
2018-06-13T07:46:28.819Z,12512.00
2018-06-13T07:47:28.741Z,12772.00
2018-06-13T07:48:28.731Z,11084.00
2018-06-13T07:49:28.719Z,11064.00
2018-06-13T07:50:28.998Z,13264.00
2018-06-13T07:51:28.687Z,12236.00
2018-06-13T07:52:28.723Z,11944.00
2018-06-13T07:53:28.687Z,12892.00
2018-06-13T07:54:28.647Z,12536.00
2018-06-13T07:55:28.640Z,12948.00
2018-06-13T07:56:28.624Z,13648.00
2018-06-13T07:57:29.118Z,14176.00
2018-06-13T07:58:31.068Z,13924.00
2018-06-13T07:59:28.606Z,13528.00
2018-06-13T08:00:28.894Z,14192.00
2018-06-13T08:01:28.563Z,13480.00
2018-06-13T08:02:28.550Z,13960.00
2018-06-13T08:03:28.852Z,13508.00
2018-06-13T08:05:28.559Z,14628.00
2018-06-13T08:06:28.498Z,14860.00
2018-06-13T08:07:28.494Z,15204.00
2018-06-13T08:08:28.621Z,15456.00
2018-06-13T08:10:28.753Z,13904.00
2018-06-13T08:11:28.496Z,14208.00
2018-06-13T08:12:28.431Z,15248.00
2018-06-13T08:14:28.414Z,14976.00
2018-06-13T08:15:28.406Z,14896.00
2018-06-13T08:16:28.433Z,14724.00
2018-06-13T08:17:28.821Z,14024.00
2018-06-13T08:18:28.363Z,13332.00
2018-06-13T08:19:28.423Z,13504.00
2018-06-13T08:20:28.328Z,14908.00
2018-06-13T08:21:28.318Z,16960.00
2018-06-13T08:22:28.323Z,15552.00
2018-06-13T08:23:28.359Z,16992.00
2018-06-13T08:25:28.635Z,17440.00
2018-06-13T08:26:28.258Z,17952.00
2018-06-13T08:27:28.463Z,15296.00
2018-06-13T08:28:28.277Z,16192.00
2018-06-13T08:29:28.306Z,15488.00
2018-06-13T08:30:28.681Z,15680.00
2018-06-13T08:31:29.435Z,17184.00
2018-06-13T08:32:28.627Z,16672.00
2018-06-13T08:33:28.550Z,14976.00
2018-06-13T08:34:28.173Z,13960.00
2018-06-13T08:35:28.213Z,12444.00
2018-06-13T08:36:28.149Z,12420.00
2018-06-13T08:37:28.155Z,11560.00
2018-06-13T08:38:28.433Z,10392.00
2018-06-13T08:40:28.104Z,10324.00
2018-06-13T08:41:28.145Z,10888.00
2018-06-13T08:42:28.084Z,10684.00
2018-06-13T08:43:28.123Z,9356.00
2018-06-13T08:44:28.363Z,7776.00
2018-06-13T08:46:28.057Z,7392.00
2018-06-13T08:47:28.350Z,7212.00
2018-06-13T08:48:28.548Z,7680.00
2018-06-13T08:49:28.941Z,8156.00
2018-06-13T08:50:28.868Z,7764.00
2018-06-13T08:51:28.429Z,8120.00
2018-06-13T08:52:28.435Z,7664.00
2018-06-13T08:53:27.958Z,8268.00
2018-06-13T08:54:27.938Z,8984.00
2018-06-13T08:55:27.938Z,9924.00
2018-06-13T08:56:28.234Z,8348.00
2018-06-13T08:57:27.910Z,8244.00
2018-06-13T08:58:27.955Z,7880.00
2018-06-13T08:59:27.885Z,7204.00
2018-06-13T09:00:27.881Z,7348.00
2018-06-13T09:01:27.866Z,7544.00
2018-06-13T09:02:27.889Z,7028.00
2018-06-13T09:03:27.834Z,6004.00
2018-06-13T09:04:27.877Z,5628.00
2018-06-13T09:06:27.809Z,6432.00
2018-06-13T09:07:27.828Z,6192.00
2018-06-13T09:08:28.073Z,5768.00
2018-06-13T09:09:27.775Z,5632.00
2018-06-13T09:10:27.810Z,5424.00
2018-06-13T09:11:27.740Z,5284.00
2018-06-13T09:12:27.736Z,5300.00
2018-06-13T09:13:27.715Z,5500.00
2018-06-13T09:14:28.012Z,4724.00
2018-06-13T09:15:27.690Z,5828.00
2018-06-13T09:18:27.658Z,6064.00
2018-06-13T09:19:27.694Z,6156.00
2018-06-13T09:20:27.625Z,6544.00
2018-06-13T09:21:27.910Z,6188.00
2018-06-13T09:22:27.624Z,5780.00
2018-06-13T09:24:27.639Z,6960.00
2018-06-13T09:25:27.564Z,7528.00
2018-06-13T09:26:27.611Z,9492.00
2018-06-13T09:27:27.838Z,11748.00
2018-06-13T09:28:27.525Z,12636.00
2018-06-13T09:29:27.537Z,13364.00
2018-06-13T09:30:27.554Z,12232.00
2018-06-13T09:31:27.485Z,13088.00
2018-06-13T09:32:27.489Z,12540.00
2018-06-13T09:33:27.557Z,12840.00
2018-06-13T09:34:27.755Z,12904.00
2018-06-13T09:35:27.523Z,12740.00
2018-06-13T09:36:27.525Z,11908.00
2018-06-13T09:38:27.496Z,7592.00
2018-06-13T09:39:27.658Z,6856.00
2018-06-13T09:40:27.373Z,8352.00
2018-06-13T09:41:27.658Z,9284.00
2018-06-13T09:42:27.395Z,9436.00
2018-06-13T09:43:27.348Z,12176.00
2018-06-13T09:44:27.324Z,12392.00
2018-06-13T09:45:27.316Z,12440.00
2018-06-13T09:46:27.359Z,14520.00
2018-06-13T09:47:27.290Z,15840.00
2018-06-13T09:48:27.622Z,14988.00
2018-06-13T09:49:27.263Z,15228.00
2018-06-13T09:50:27.731Z,15968.00
2018-06-13T09:51:27.242Z,15616.00
2018-06-13T09:52:27.278Z,14112.00
2018-06-13T09:53:27.214Z,13660.00
2018-06-13T09:54:27.302Z,15236.00
2018-06-13T09:55:27.506Z,14344.00
2018-06-13T09:56:27.190Z,13384.00
2018-06-13T09:57:27.167Z,15808.00
2018-06-13T09:58:27.159Z,16160.00
2018-06-13T09:59:27.143Z,14676.00
2018-06-13T10:00:27.182Z,13412.00
2018-06-13T10:01:27.472Z,13508.00
2018-06-13T10:02:27.114Z,13892.00
2018-06-13T10:03:27.106Z,11484.00
2018-06-13T10:04:27.093Z,10064.00
2018-06-13T10:06:27.122Z,14328.00
2018-06-13T10:07:27.356Z,11668.00
2018-06-13T10:08:27.052Z,12960.00
2018-06-13T10:09:27.029Z,16800.00
2018-06-13T10:10:27.015Z,17824.00
2018-06-13T10:11:27.016Z,18560.00
2018-06-13T10:12:27.059Z,15552.00
2018-06-13T10:13:27.280Z,13952.00
2018-06-13T10:14:26.971Z,14648.00
2018-06-13T10:15:26.966Z,11652.00
2018-06-13T10:16:27.026Z,11872.00
2018-06-13T10:17:26.952Z,12888.00
2018-06-13T10:18:26.987Z,14512.00
2018-06-13T10:20:27.203Z,21312.00
2018-06-13T10:22:26.880Z,18688.00
2018-06-13T10:23:27.025Z,17472.00
2018-06-13T10:24:26.934Z,19232.00
2018-06-13T10:25:27.017Z,18624.00
2018-06-13T10:26:27.135Z,17952.00
2018-06-13T10:27:26.885Z,17824.00
2018-06-13T10:28:27.045Z,17792.00
2018-06-13T10:29:26.801Z,22464.00
2018-06-13T10:30:26.843Z,24736.00
2018-06-13T10:31:26.775Z,25216.00
2018-06-13T10:32:27.063Z,24384.00
2018-06-13T10:33:26.755Z,23040.00
2018-06-13T10:34:26.743Z,22208.00
2018-06-13T10:35:27.035Z,23168.00
2018-06-13T10:36:26.778Z,24096.00
2018-06-13T10:37:26.809Z,20224.00
2018-06-13T10:38:26.699Z,19712.00
2018-06-13T10:39:26.990Z,22144.00
2018-06-13T10:40:26.700Z,22848.00
2018-06-13T10:41:26.681Z,22240.00
2018-06-13T10:42:26.717Z,25088.00
2018-06-13T10:43:26.650Z,25248.00
2018-06-13T10:44:26.739Z,24576.00
2018-06-13T10:45:27.155Z,23104.00
2018-06-13T10:46:26.696Z,19456.00
2018-06-13T10:48:26.657Z,18880.00
2018-06-13T10:49:26.605Z,16320.00
2018-06-13T10:50:26.600Z,15488.00
2018-06-13T10:51:26.875Z,14404.00
2018-06-13T10:52:26.560Z,12176.00
2018-06-13T10:53:26.554Z,13620.00
2018-06-13T10:54:26.592Z,13784.00
2018-06-13T10:55:26.545Z,14388.00
2018-06-13T10:56:26.518Z,13904.00
2018-06-13T10:57:26.505Z,16352.00
2018-06-13T10:58:26.496Z,14920.00
2018-06-13T10:59:26.498Z,16736.00
2018-06-13T11:00:26.529Z,13728.00
2018-06-13T11:01:26.490Z,15296.00
2018-06-13T11:02:26.455Z,14456.00
2018-06-13T11:03:26.748Z,16672.00
2018-06-13T11:04:26.445Z,16544.00
2018-06-13T11:05:26.434Z,16000.00
2018-06-13T11:06:26.468Z,15424.00
2018-06-13T11:07:26.404Z,16512.00
2018-06-13T11:08:26.394Z,17408.00
2018-06-13T11:09:26.708Z,17120.00
2018-06-13T11:10:26.376Z,14688.00
2018-06-13T11:11:26.394Z,18432.00
2018-06-13T11:12:26.399Z,18656.00
2018-06-13T11:13:26.367Z,20224.00
2018-06-13T11:14:26.336Z,20544.00
2018-06-13T11:15:26.320Z,22144.00
2018-06-13T11:16:26.609Z,22144.00
2018-06-13T11:17:26.295Z,20960.00
2018-06-13T11:19:26.397Z,22080.00
2018-06-13T11:20:26.286Z,25088.00
2018-06-13T11:21:26.255Z,24480.00
2018-06-13T11:23:26.533Z,19680.00
2018-06-13T11:24:26.229Z,18304.00
2018-06-13T11:25:26.263Z,19808.00
2018-06-13T11:26:26.202Z,15296.00
2018-06-13T11:27:26.245Z,16192.00
2018-06-13T11:28:26.207Z,17600.00
2018-06-13T11:29:26.486Z,19040.00
2018-06-13T11:30:26.234Z,17856.00
2018-06-13T11:31:26.251Z,17568.00
2018-06-13T11:33:26.138Z,18592.00
2018-06-13T11:34:26.132Z,18432.00
2018-06-13T11:35:26.415Z,23744.00
2018-06-13T11:36:26.101Z,20096.00
2018-06-13T11:37:26.138Z,14752.00
2018-06-13T11:38:26.075Z,17344.00
2018-06-13T11:39:26.069Z,15296.00
2018-06-13T11:40:26.053Z,16256.00
2018-06-13T11:41:26.380Z,14100.00
2018-06-13T11:42:26.040Z,10196.00
2018-06-13T11:43:26.074Z,13216.00
2018-06-13T11:44:26.020Z,11856.00
2018-06-13T11:45:26.264Z,13044.00
2018-06-13T11:46:26.104Z,12500.00
2018-06-13T11:47:26.283Z,12072.00
2018-06-13T11:48:25.968Z,15456.00
2018-06-13T11:49:26.011Z,17600.00
2018-06-13T11:50:25.953Z,19360.00
2018-06-13T11:51:25.944Z,19328.00
2018-06-13T11:52:25.936Z,24448.00
2018-06-13T11:53:26.216Z,25568.00
2018-06-13T11:54:25.918Z,21696.00
2018-06-13T11:55:25.945Z,22496.00
2018-06-13T11:56:25.882Z,23520.00
2018-06-13T11:57:28.878Z,21792.00
2018-06-13T11:58:25.871Z,24896.00
2018-06-13T11:59:25.857Z,25248.00
2018-06-13T12:00:26.221Z,24512.00
2018-06-13T12:01:25.959Z,24512.00
2018-06-13T12:02:25.820Z,29696.00
2018-06-13T12:03:25.823Z,31360.00
2018-06-13T12:04:25.881Z,29216.00
2018-06-13T12:05:25.867Z,37280.00
2018-06-13T12:06:26.089Z,35552.00
2018-06-13T12:07:25.820Z,42112.00
2018-06-13T12:08:25.771Z,33376.00
2018-06-13T12:09:25.750Z,28384.00
2018-06-13T12:10:25.749Z,27648.00
2018-06-13T12:11:25.731Z,27168.00
2018-06-13T12:12:26.043Z,26048.00
2018-06-13T12:13:25.767Z,26624.00
2018-06-13T12:14:25.708Z,28000.00
2018-06-13T12:15:25.701Z,35936.00
2018-06-13T12:16:25.711Z,58976.00
2018-06-13T12:17:25.693Z,35392.00
2018-06-13T12:19:26.007Z,33056.00
2018-06-13T12:20:25.655Z,36704.00
2018-06-13T12:21:25.639Z,30528.00
2018-06-13T12:23:25.619Z,28192.00
2018-06-13T12:24:25.631Z,26304.00
2018-06-13T12:25:25.656Z,28032.00
2018-06-13T12:26:25.895Z,24608.00
2018-06-13T12:27:25.589Z,25280.00
2018-06-13T12:28:25.588Z,25824.00
2018-06-13T12:29:25.568Z,27488.00
2018-06-13T12:30:25.556Z,31936.00
2018-06-13T12:31:25.633Z,31264.00
2018-06-13T12:36:25.516Z,26944.00
2018-06-13T12:37:25.564Z,28320.00
2018-06-13T12:39:26.186Z,34112.00
2018-06-13T12:40:25.554Z,25056.00
2018-06-13T12:41:25.541Z,17856.00
2018-06-13T12:42:25.475Z,17344.00
2018-06-13T12:43:25.511Z,15088.00
2018-06-13T12:44:25.439Z,13128.00
2018-06-13T12:45:25.471Z,13828.00
2018-06-13T12:46:25.733Z,14692.00
2018-06-13T12:47:25.415Z,15744.00
2018-06-13T12:48:25.478Z,14792.00
2018-06-13T12:49:25.445Z,14384.00
2018-06-13T12:50:25.458Z,14356.00
2018-06-13T12:51:25.380Z,13832.00
2018-06-13T12:52:25.667Z,11400.00
2018-06-13T12:53:25.376Z,12096.00
2018-06-13T12:54:25.355Z,12736.00
2018-06-13T12:55:25.387Z,11596.00
2018-06-13T12:56:25.327Z,13572.00